Lexington, KY (40511)

2:46 PM EDT on August 29, 2014 (GMT -0400)
Sayre School | Change Station
CLOSE
Current Station
Personal Weather Station
Location: Lexington, KY
Elevation: 971 ft
Nearby Weather Stations

Elev 971 ft 38.05 °N, 84.49 °W | Updated 52 seconds ago

Clear
Clear
90.5 °F
Feels Like 95 °F
N
4.0
Wind Variable Wind from North
Gusts 4.0 mph

Today
High -- | Low -- °F
--% Chance of Precip.
Yesterday
High -- | Low -- °F
Precip. -- in
7:05 AM 8:11 PM
Waxing Crescent, 16% visible
Pressure 30.04 in
Visibility 10.0 miles
Clouds Few 3300 ft
Heat Index 95 °F
Dew Point 68 °F
Humidity 48%
Rainfall 0.00 in
Snow Depth Not available.
UV 5.5 out of 12
Pollen 10.70 out of 12
Ozone Good
PM2.5 Moderate
Flu Activity Not available.
METAR KLEX 291754Z 18007KT 10SM FEW033 32/22 A3007 RMK AO2 SLP170 T03170222 10317 20222 58010

More Conditions Fewer Conditions

Pressure 30.04 in
Visibility 10.0 miles
Clouds Few 3300 ft
Heat Index 95 °F
Dew Point 68 °F
Humidity 48%
Rainfall 0.00 in
Snow Depth Not available.
UV 5.5 out of 12
Pollen 10.70 out of 12
Ozone Good
PM2.5 Moderate
Flu Activity Not available.
METAR KLEX 291754Z 18007KT 10SM FEW033 32/22 A3007 RMK AO2 SLP170 T03170222 10317 20222 58010

More Conditions Fewer Conditions

10-Day Weather Forecast

Almanac

Astronomy

Aug. 29, 2014 Rise Set
Actual Time 7:05 AM EDT 8:11 PM EDT
Civil Twilight 6:37 AM EDT 8:39 PM EDT
Nautical Twilight 6:05 AM EDT 9:11 PM EDT
Astronomical Twilight 5:31 AM EDT 9:44 PM EDT
Moon 10:49 AM EDT 10:13 PM EDT
Length of Visible Light 14h 01m
Length of Day
13h 06m
Tomorrow will be 2m 20s shorter.
Waxing Crescent, 16% of the Moon is Illuminated
Today
Waxing Crescent
Sep 2
First Quarter
Sep 8
Full
Sep 15
Last Quarter
Sep 24
New

Today's Extremes

State Highs State Lows

Community

WunderPhotos

Upload Photos

1,748,314 photos uploaded!

Nearby

Air Quality

  Air Quality AQ Index Pollutant
Yesterday Moderate
PM2.5
Yesterday Good
OZONE
Current Moderate
PM2.5
Current Good
OZONE
Friday Good
OZONE

Snow Depth

Station Depth Elevation
No new snow has been reported.

Earthquake Activity

City Distance Mag. Time & Date
No recent earthquake activity has been reported nearby.
Minimum magnitude displayed is 2.5.

Coastal Water Temperatures

Place Temperature
No Stations Reporting

Nearby Weather Stations